createdAt,value
2022-09-21T00:03:20.199Z,11.70
2022-09-21T00:07:37.387Z,10.32
2022-09-21T00:11:58.168Z,9.60
2022-09-21T00:16:17.143Z,9.02
2022-09-21T00:24:51.464Z,11.23
2022-09-21T00:29:10.343Z,8.27
2022-09-21T00:33:27.555Z,7.82
2022-09-21T00:37:44.882Z,11.25
2022-09-21T00:42:03.167Z,12.70
2022-09-21T00:46:29.642Z,12.10
2022-09-21T00:50:54.118Z,10.32
2022-09-21T00:55:24.349Z,8.18
2022-09-21T00:59:44.920Z,9.30
2022-09-21T01:04:03.057Z,8.00
2022-09-21T01:08:21.453Z,10.38
2022-09-21T01:12:50.760Z,8.18
2022-09-21T01:17:18.710Z,9.43
2022-09-21T01:21:54.013Z,8.68
2022-09-21T01:26:32.696Z,10.27
2022-09-21T01:30:54.497Z,10.18
2022-09-21T01:35:11.677Z,9.13
2022-09-21T01:39:30.445Z,11.25
2022-09-21T01:43:57.615Z,17.05
2022-09-21T01:48:15.701Z,8.88
2022-09-21T01:52:47.041Z,9.57
2022-09-21T01:57:29.244Z,10.82
2022-09-21T02:01:53.371Z,9.90
2022-09-21T02:06:12.521Z,7.32
2022-09-21T02:10:39.975Z,8.75
2022-09-21T02:14:57.808Z,7.65
2022-09-21T02:19:25.773Z,9.93
2022-09-21T02:24:07.779Z,11.05
2022-09-21T02:28:38.810Z,8.20
2022-09-21T02:33:19.382Z,9.50
2022-09-21T02:38:08.185Z,8.27
2022-09-21T02:42:31.223Z,9.90
2022-09-21T02:46:54.866Z,16.30
2022-09-21T02:51:16.885Z,11.52
2022-09-21T02:55:34.721Z,11.63
2022-09-21T02:59:52.848Z,13.05
2022-09-21T03:04:11.098Z,13.85
2022-09-21T03:08:28.743Z,16.17
2022-09-21T03:12:46.892Z,13.50
2022-09-21T03:17:04.320Z,13.35
2022-09-21T03:21:22.072Z,12.68
2022-09-21T03:25:39.358Z,12.38
2022-09-21T03:30:00.023Z,11.50
2022-09-21T03:34:19.077Z,10.73
2022-09-21T03:38:37.735Z,11.63
2022-09-21T03:47:12.499Z,13.60
2022-09-21T03:51:31.514Z,13.15
2022-09-21T03:55:49.371Z,16.35
2022-09-21T04:00:09.477Z,13.00
2022-09-21T04:04:29.160Z,16.25
2022-09-21T04:08:46.394Z,18.27
2022-09-21T04:13:04.835Z,14.95
2022-09-21T04:17:22.072Z,14.93
2022-09-21T04:21:39.372Z,15.95
2022-09-21T04:25:57.462Z,14.63
2022-09-21T04:30:16.514Z,12.25
2022-09-21T04:34:33.771Z,27.15
2022-09-21T04:38:52.056Z,17.95
2022-09-21T04:43:09.613Z,17.33
2022-09-21T04:47:29.164Z,14.63
2022-09-21T04:51:46.763Z,19.55
2022-09-21T04:56:06.283Z,20.27
2022-09-21T05:00:25.921Z,19.20
2022-09-21T05:04:50.119Z,16.73
2022-09-21T05:09:28.290Z,19.15
2022-09-21T05:13:46.148Z,36.40
2022-09-21T05:18:05.260Z,17.53
2022-09-21T05:22:22.479Z,15.63
2022-09-21T05:26:39.820Z,13.55
2022-09-21T05:31:25.144Z,15.77
2022-09-21T05:35:59.075Z,17.50
2022-09-21T05:40:17.119Z,18.85
2022-09-21T05:44:34.815Z,16.00
2022-09-21T05:49:02.266Z,18.05
2022-09-21T05:53:48.630Z,26.25
2022-09-21T05:58:26.624Z,20.83
2022-09-21T06:02:50.230Z,16.52
2022-09-21T06:07:07.570Z,36.38
2022-09-21T06:11:27.547Z,17.13
2022-09-21T06:15:45.047Z,15.38
2022-09-21T06:20:03.321Z,18.95
2022-09-21T06:24:20.636Z,12.52
2022-09-21T06:28:37.987Z,12.80
2022-09-21T06:32:58.343Z,14.07
2022-09-21T06:37:15.948Z,17.88
2022-09-21T06:41:33.291Z,14.77
2022-09-21T06:45:55.485Z,16.42
2022-09-21T06:50:12.912Z,12.23
2022-09-21T06:54:30.423Z,12.18
2022-09-21T06:58:48.075Z,19.55
2022-09-21T07:03:05.787Z,17.65
2022-09-21T07:07:23.090Z,15.05
2022-09-21T07:11:42.048Z,13.90
2022-09-21T07:16:03.196Z,13.10
2022-09-21T07:20:20.782Z,12.85
2022-09-21T07:24:38.126Z,17.35
2022-09-21T07:28:55.815Z,10.63
2022-09-21T07:33:13.019Z,14.70
2022-09-21T07:37:33.214Z,13.57
2022-09-21T07:41:50.510Z,12.00
2022-09-21T07:46:10.409Z,11.55
2022-09-21T07:50:27.696Z,7.82
2022-09-21T07:54:45.400Z,9.88
2022-09-21T07:59:06.150Z,10.43
2022-09-21T08:03:23.502Z,9.55
2022-09-21T08:07:40.847Z,11.65
2022-09-21T08:11:58.627Z,10.23
2022-09-21T08:16:15.972Z,13.18
2022-09-21T08:20:34.223Z,9.38
2022-09-21T08:24:52.786Z,9.37
2022-09-21T08:29:10.131Z,9.68
2022-09-21T08:33:30.705Z,9.27
2022-09-21T08:37:48.009Z,8.07
2022-09-21T08:42:20.612Z,11.80
2022-09-21T08:46:39.003Z,9.38
2022-09-21T08:51:01.210Z,6.65
2022-09-21T08:55:21.396Z,9.82
2022-09-21T08:59:42.964Z,9.65
2022-09-21T09:04:45.489Z,12.65
2022-09-21T09:09:22.437Z,10.07
2022-09-21T09:13:53.908Z,8.90
2022-09-21T09:18:25.173Z,7.30
2022-09-21T09:23:08.442Z,12.70
2022-09-21T09:27:32.645Z,11.77
2022-09-21T09:31:51.485Z,8.68
2022-09-21T09:45:24.943Z,8.65
2022-09-21T09:50:01.532Z,8.52
2022-09-21T09:54:23.026Z,6.82
2022-09-21T09:59:17.328Z,7.22
2022-09-21T10:03:34.825Z,9.15
2022-09-21T10:07:53.589Z,6.65
2022-09-21T10:12:27.431Z,8.63
2022-09-21T10:16:45.108Z,9.43
2022-09-21T10:21:04.630Z,6.38
2022-09-21T10:25:22.036Z,7.00
2022-09-21T10:29:46.198Z,5.90
2022-09-21T10:34:25.653Z,7.72
2022-09-21T10:38:43.013Z,4.22
2022-09-21T10:43:00.864Z,8.23
2022-09-21T10:47:41.441Z,5.15
2022-09-21T10:52:01.674Z,9.60
2022-09-21T10:56:19.566Z,5.35
2022-09-21T11:00:48.311Z,7.07
2022-09-21T11:05:14.579Z,8.35
2022-09-21T11:09:40.739Z,2.40
2022-09-21T11:14:34.933Z,5.47
2022-09-21T11:19:18.883Z,5.18
2022-09-21T11:23:42.181Z,4.43
2022-09-21T11:28:34.993Z,3.17
2022-09-21T11:33:31.415Z,5.40
2022-09-21T11:37:58.502Z,3.40
2022-09-21T11:42:41.642Z,3.92
2022-09-21T11:47:24.461Z,5.03
2022-09-21T11:52:12.021Z,3.72
2022-09-21T11:56:37.134Z,4.30
2022-09-21T12:01:08.054Z,3.42
2022-09-21T12:05:43.366Z,4.97
2022-09-21T12:10:37.165Z,4.38
2022-09-21T12:15:25.075Z,4.50
2022-09-21T12:19:51.369Z,2.45
2022-09-21T12:24:22.989Z,1.73
2022-09-21T12:28:48.046Z,3.05
2022-09-21T12:33:34.302Z,3.05
2022-09-21T12:38:01.598Z,2.42
2022-09-21T12:42:39.120Z,3.83
2022-09-21T12:47:09.792Z,3.63
2022-09-21T12:51:38.556Z,5.28
2022-09-21T12:56:01.359Z,2.40
2022-09-21T13:00:22.593Z,4.53
2022-09-21T13:04:58.715Z,2.17
2022-09-21T13:09:19.864Z,4.40
2022-09-21T13:13:51.307Z,4.97
2022-09-21T13:18:26.997Z,3.40
2022-09-21T13:22:46.180Z,5.28
2022-09-21T13:27:08.214Z,4.40
2022-09-21T13:31:56.188Z,3.30
2022-09-21T13:36:33.927Z,2.88
2022-09-21T13:46:06.420Z,4.03
2022-09-21T13:50:31.579Z,2.78
2022-09-21T13:54:53.650Z,2.83
2022-09-21T13:59:24.732Z,3.58
2022-09-21T14:03:49.180Z,2.42
2022-09-21T14:08:15.717Z,4.78
2022-09-21T14:12:41.582Z,2.38
2022-09-21T14:17:05.326Z,3.28
2022-09-21T14:21:23.403Z,1.48
2022-09-21T14:25:52.443Z,3.60
2022-09-21T14:30:23.095Z,3.50
2022-09-21T14:34:44.233Z,2.60
2022-09-21T14:39:05.084Z,4.28
2022-09-21T14:43:30.236Z,5.28
2022-09-21T14:48:08.826Z,6.03
2022-09-21T14:52:38.333Z,4.65
2022-09-21T14:57:34.811Z,2.38
2022-09-21T15:02:07.400Z,5.25
2022-09-21T15:07:02.853Z,2.58
2022-09-21T15:11:37.104Z,3.47
2022-09-21T15:16:09.931Z,3.20
2022-09-21T15:20:31.157Z,3.47
2022-09-21T15:24:58.109Z,2.65
2022-09-21T15:29:31.495Z,2.78
2022-09-21T15:33:52.481Z,1.90
2022-09-21T15:38:27.747Z,2.55
2022-09-21T15:43:29.873Z,4.68
2022-09-21T15:47:47.418Z,4.60
2022-09-21T15:52:13.856Z,3.88
2022-09-21T15:56:31.427Z,4.75
2022-09-21T16:00:56.389Z,2.95
2022-09-21T16:05:15.749Z,5.15
2022-09-21T16:09:46.056Z,3.70
2022-09-21T16:14:31.177Z,7.22
2022-09-21T16:18:55.128Z,7.60
2022-09-21T16:23:15.884Z,8.90
2022-09-21T16:27:33.250Z,11.20
2022-09-21T16:31:51.626Z,7.60
2022-09-21T16:36:19.740Z,8.38
2022-09-21T16:40:36.954Z,7.97
2022-09-21T16:44:55.019Z,8.45
2022-09-21T16:49:18.529Z,15.60
2022-09-21T16:53:36.092Z,12.10
2022-09-21T16:57:53.871Z,6.00
2022-09-21T17:02:14.151Z,8.57
2022-09-21T17:06:31.489Z,7.32
2022-09-21T17:10:48.917Z,10.98
2022-09-21T17:15:08.022Z,10.48
2022-09-21T17:19:25.438Z,9.73
2022-09-21T17:23:43.019Z,10.57
2022-09-21T17:28:01.943Z,10.05
2022-09-21T17:32:22.440Z,10.73
2022-09-21T17:36:40.087Z,13.60
2022-09-21T17:40:58.355Z,13.10
2022-09-21T17:45:28.896Z,17.33
2022-09-21T17:49:47.480Z,12.45
2022-09-21T17:54:05.239Z,12.90
2022-09-21T17:58:38.763Z,12.32
2022-09-21T18:02:56.236Z,15.38
2022-09-21T18:07:13.808Z,17.48
2022-09-21T18:11:55.851Z,15.68
2022-09-21T18:16:27.233Z,16.02
2022-09-21T18:21:03.654Z,18.20
2022-09-21T18:25:48.153Z,18.45
2022-09-21T18:30:05.991Z,20.00
2022-09-21T18:34:51.391Z,22.17
2022-09-21T18:39:14.575Z,21.55
2022-09-21T18:43:49.017Z,25.33
2022-09-21T18:48:24.661Z,22.50
2022-09-21T18:53:11.940Z,18.55
2022-09-21T18:57:32.637Z,20.17
2022-09-21T19:01:52.588Z,22.00
2022-09-21T19:06:30.153Z,18.15
2022-09-21T19:11:22.895Z,15.43
2022-09-21T19:16:06.143Z,18.73
2022-09-21T19:20:51.449Z,22.13
2022-09-21T19:25:36.446Z,30.30
2022-09-21T19:30:05.034Z,25.02
2022-09-21T19:34:22.579Z,28.50
2022-09-21T19:38:40.482Z,27.25
2022-09-21T19:43:03.934Z,21.33
2022-09-21T19:47:31.865Z,18.95
2022-09-21T19:51:51.454Z,22.23
2022-09-21T19:56:32.497Z,31.58
2022-09-21T20:00:55.420Z,25.13
2022-09-21T20:05:23.369Z,19.13
2022-09-21T20:09:46.459Z,26.58
2022-09-21T20:14:14.865Z,33.50
2022-09-21T20:18:56.873Z,27.07
2022-09-21T20:23:14.545Z,29.77
2022-09-21T20:27:39.753Z,25.67
2022-09-21T20:32:00.974Z,29.48
2022-09-21T20:36:18.374Z,22.20
2022-09-21T20:40:36.038Z,21.92
2022-09-21T20:44:54.272Z,35.00
2022-09-21T20:49:15.522Z,30.50
2022-09-21T20:53:33.995Z,21.38
2022-09-21T20:57:51.528Z,25.52
2022-09-21T21:02:13.140Z,26.65
2022-09-21T21:06:35.043Z,29.40
2022-09-21T21:10:55.721Z,36.50
2022-09-21T21:15:13.367Z,135.27
2022-09-21T21:19:31.871Z,35.63
2022-09-21T21:24:08.770Z,33.47
2022-09-21T21:28:28.494Z,40.85
2022-09-21T21:32:45.820Z,27.85
2022-09-21T21:37:03.551Z,29.55
2022-09-21T21:41:20.861Z,39.35
2022-09-21T21:45:39.311Z,37.13
2022-09-21T21:49:56.629Z,32.95
2022-09-21T21:54:14.915Z,48.67
2022-09-21T21:58:33.294Z,43.05
2022-09-21T22:02:51.000Z,58.28
2022-09-21T22:07:08.463Z,33.88
2022-09-21T22:11:29.365Z,34.65
2022-09-21T22:15:48.094Z,36.90
2022-09-21T22:24:22.799Z,33.42
2022-09-21T22:28:41.663Z,30.08
2022-09-21T22:32:59.284Z,33.42
2022-09-21T22:37:16.875Z,32.95
2022-09-21T22:41:36.934Z,45.90
2022-09-21T22:45:54.538Z,38.70
2022-09-21T22:50:12.114Z,41.75
2022-09-21T22:54:29.540Z,26.33
2022-09-21T22:58:49.025Z,32.65
2022-09-21T23:03:07.082Z,47.08
2022-09-21T23:07:24.663Z,31.37
2022-09-21T23:11:44.031Z,31.83
2022-09-21T23:16:03.035Z,26.83
2022-09-21T23:20:20.374Z,30.02
2022-09-21T23:24:38.103Z,34.00
2022-09-21T23:28:59.900Z,34.00
2022-09-21T23:33:18.843Z,32.75
2022-09-21T23:37:36.118Z,33.30
2022-09-21T23:41:53.392Z,30.92
2022-09-21T23:46:12.783Z,30.23
2022-09-21T23:50:30.019Z,41.42
2022-09-21T23:54:48.241Z,35.95
2022-09-21T23:59:05.614Z,32.42
